sensor_id;sensor_type;location;lat;lon;timestamp;P1;durP1;ratioP1;P2;durP2;ratioP2
11921;SDS011;6021;51.182;3.160;2023-07-29T00:01:48;5.03;;;3.40;;
11921;SDS011;6021;51.182;3.160;2023-07-29T00:04:16;4.23;;;3.40;;
11921;SDS011;6021;51.182;3.160;2023-07-29T00:06:45;4.57;;;3.50;;
11921;SDS011;6021;51.182;3.160;2023-07-29T00:09:13;3.93;;;3.47;;
11921;SDS011;6021;51.182;3.160;2023-07-29T00:11:42;3.93;;;3.50;;
11921;SDS011;6021;51.182;3.160;2023-07-29T00:14:10;3.80;;;3.33;;
11921;SDS011;6021;51.182;3.160;2023-07-29T00:16:38;4.27;;;3.50;;
11921;SDS011;6021;51.182;3.160;2023-07-29T00:19:07;4.53;;;3.40;;
11921;SDS011;6021;51.182;3.160;2023-07-29T00:21:35;5.20;;;3.17;;
11921;SDS011;6021;51.182;3.160;2023-07-29T00:24:04;4.10;;;3.47;;
11921;SDS011;6021;51.182;3.160;2023-07-29T00:26:33;4.53;;;3.13;;
11921;SDS011;6021;51.182;3.160;2023-07-29T00:29:01;3.80;;;3.40;;
11921;SDS011;6021;51.182;3.160;2023-07-29T00:31:30;5.50;;;3.73;;
11921;SDS011;6021;51.182;3.160;2023-07-29T00:33:58;5.43;;;3.23;;
11921;SDS011;6021;51.182;3.160;2023-07-29T00:36:27;4.60;;;3.30;;
11921;SDS011;6021;51.182;3.160;2023-07-29T00:38:55;4.53;;;3.17;;
11921;SDS011;6021;51.182;3.160;2023-07-29T00:41:23;5.83;;;3.30;;
11921;SDS011;6021;51.182;3.160;2023-07-29T00:43:53;5.40;;;3.73;;
11921;SDS011;6021;51.182;3.160;2023-07-29T00:46:21;4.40;;;3.83;;
11921;SDS011;6021;51.182;3.160;2023-07-29T00:48:50;5.03;;;3.63;;
11921;SDS011;6021;51.182;3.160;2023-07-29T00:51:18;4.27;;;3.53;;
11921;SDS011;6021;51.182;3.160;2023-07-29T00:53:47;4.03;;;3.33;;
11921;SDS011;6021;51.182;3.160;2023-07-29T00:56:15;5.37;;;3.53;;
11921;SDS011;6021;51.182;3.160;2023-07-29T00:58:44;4.00;;;3.17;;
11921;SDS011;6021;51.182;3.160;2023-07-29T01:01:12;4.30;;;3.30;;
11921;SDS011;6021;51.182;3.160;2023-07-29T01:03:41;4.27;;;3.40;;
11921;SDS011;6021;51.182;3.160;2023-07-29T01:09:14;4.10;;;3.40;;
11921;SDS011;6021;51.182;3.160;2023-07-29T01:16:55;6.43;;;3.40;;
11921;SDS011;6021;51.182;3.160;2023-07-29T01:22:12;5.17;;;3.50;;
11921;SDS011;6021;51.182;3.160;2023-07-29T01:24:42;5.50;;;3.80;;
11921;SDS011;6021;51.182;3.160;2023-07-29T01:27:11;4.60;;;3.27;;
11921;SDS011;6021;51.182;3.160;2023-07-29T01:29:39;5.23;;;3.50;;
11921;SDS011;6021;51.182;3.160;2023-07-29T01:32:10;3.57;;;3.23;;
11921;SDS011;6021;51.182;3.160;2023-07-29T01:35:02;3.93;;;3.37;;
11921;SDS011;6021;51.182;3.160;2023-07-29T01:37:34;4.17;;;3.63;;
11921;SDS011;6021;51.182;3.160;2023-07-29T01:40:06;3.90;;;3.60;;
11921;SDS011;6021;51.182;3.160;2023-07-29T01:42:36;4.83;;;3.70;;
11921;SDS011;6021;51.182;3.160;2023-07-29T01:45:05;4.63;;;3.73;;
11921;SDS011;6021;51.182;3.160;2023-07-29T01:47:33;4.73;;;3.90;;
11921;SDS011;6021;51.182;3.160;2023-07-29T01:50:02;4.60;;;3.70;;
11921;SDS011;6021;51.182;3.160;2023-07-29T01:52:30;4.40;;;3.40;;
11921;SDS011;6021;51.182;3.160;2023-07-29T01:55:00;4.87;;;4.03;;
11921;SDS011;6021;51.182;3.160;2023-07-29T01:57:28;4.23;;;3.83;;
11921;SDS011;6021;51.182;3.160;2023-07-29T01:59:56;5.87;;;4.17;;
11921;SDS011;6021;51.182;3.160;2023-07-29T02:02:25;4.53;;;3.80;;
11921;SDS011;6021;51.182;3.160;2023-07-29T02:04:53;5.60;;;4.27;;
11921;SDS011;6021;51.182;3.160;2023-07-29T02:07:22;7.17;;;4.70;;
11921;SDS011;6021;51.182;3.160;2023-07-29T02:09:52;5.20;;;4.23;;
11921;SDS011;6021;51.182;3.160;2023-07-29T02:12:20;5.60;;;3.93;;
11921;SDS011;6021;51.182;3.160;2023-07-29T02:14:49;6.30;;;4.03;;
11921;SDS011;6021;51.182;3.160;2023-07-29T02:17:17;5.47;;;4.10;;
11921;SDS011;6021;51.182;3.160;2023-07-29T02:19:46;5.20;;;4.03;;
11921;SDS011;6021;51.182;3.160;2023-07-29T02:22:14;4.60;;;3.83;;
11921;SDS011;6021;51.182;3.160;2023-07-29T02:24:44;6.27;;;3.93;;
11921;SDS011;6021;51.182;3.160;2023-07-29T02:27:12;5.13;;;3.57;;
11921;SDS011;6021;51.182;3.160;2023-07-29T02:29:41;4.70;;;3.70;;
11921;SDS011;6021;51.182;3.160;2023-07-29T02:32:09;3.90;;;3.50;;
11921;SDS011;6021;51.182;3.160;2023-07-29T02:34:37;5.20;;;3.80;;
11921;SDS011;6021;51.182;3.160;2023-07-29T02:37:06;4.00;;;3.40;;
11921;SDS011;6021;51.182;3.160;2023-07-29T02:39:34;4.63;;;3.40;;
11921;SDS011;6021;51.182;3.160;2023-07-29T02:42:03;3.97;;;3.60;;
11921;SDS011;6021;51.182;3.160;2023-07-29T02:44:31;4.17;;;3.43;;
11921;SDS011;6021;51.182;3.160;2023-07-29T02:47:00;4.33;;;3.93;;
11921;SDS011;6021;51.182;3.160;2023-07-29T02:49:28;4.37;;;3.63;;
11921;SDS011;6021;51.182;3.160;2023-07-29T02:51:58;4.03;;;3.30;;
11921;SDS011;6021;51.182;3.160;2023-07-29T02:54:27;4.60;;;3.60;;
11921;SDS011;6021;51.182;3.160;2023-07-29T02:56:55;5.53;;;3.70;;
11921;SDS011;6021;51.182;3.160;2023-07-29T02:59:23;5.57;;;4.03;;
11921;SDS011;6021;51.182;3.160;2023-07-29T03:01:52;4.50;;;4.00;;
11921;SDS011;6021;51.182;3.160;2023-07-29T03:04:20;5.97;;;3.90;;
11921;SDS011;6021;51.182;3.160;2023-07-29T03:06:49;4.57;;;3.80;;
11921;SDS011;6021;51.182;3.160;2023-07-29T03:09:18;6.00;;;4.00;;
11921;SDS011;6021;51.182;3.160;2023-07-29T03:11:47;4.10;;;3.70;;
11921;SDS011;6021;51.182;3.160;2023-07-29T03:14:15;4.20;;;3.57;;
11921;SDS011;6021;51.182;3.160;2023-07-29T03:16:44;5.10;;;4.23;;
11921;SDS011;6021;51.182;3.160;2023-07-29T03:19:12;5.13;;;4.20;;
11921;SDS011;6021;51.182;3.160;2023-07-29T03:21:41;4.97;;;4.00;;
11921;SDS011;6021;51.182;3.160;2023-07-29T03:24:09;4.73;;;3.90;;
11921;SDS011;6021;51.182;3.160;2023-07-29T03:26:37;4.67;;;4.17;;
11921;SDS011;6021;51.182;3.160;2023-07-29T03:29:06;6.03;;;4.17;;
11921;SDS011;6021;51.182;3.160;2023-07-29T03:31:34;5.70;;;3.93;;
11921;SDS011;6021;51.182;3.160;2023-07-29T03:34:02;4.43;;;3.87;;
11921;SDS011;6021;51.182;3.160;2023-07-29T03:36:30;5.47;;;4.07;;
11921;SDS011;6021;51.182;3.160;2023-07-29T03:38:59;4.97;;;4.00;;
11921;SDS011;6021;51.182;3.160;2023-07-29T03:41:29;3.60;;;3.30;;
11921;SDS011;6021;51.182;3.160;2023-07-29T03:43:57;3.80;;;3.40;;
11921;SDS011;6021;51.182;3.160;2023-07-29T03:46:26;4.47;;;3.40;;
11921;SDS011;6021;51.182;3.160;2023-07-29T03:48:54;5.13;;;3.57;;
11921;SDS011;6021;51.182;3.160;2023-07-29T03:51:23;4.23;;;3.47;;
11921;SDS011;6021;51.182;3.160;2023-07-29T03:53:51;4.47;;;3.30;;
11921;SDS011;6021;51.182;3.160;2023-07-29T03:56:20;4.50;;;3.40;;
11921;SDS011;6021;51.182;3.160;2023-07-29T03:58:48;4.20;;;3.80;;
11921;SDS011;6021;51.182;3.160;2023-07-29T04:01:16;4.63;;;4.00;;
11921;SDS011;6021;51.182;3.160;2023-07-29T04:03:45;4.17;;;3.67;;
11921;SDS011;6021;51.182;3.160;2023-07-29T04:06:13;4.13;;;3.50;;
11921;SDS011;6021;51.182;3.160;2023-07-29T04:08:42;4.20;;;3.80;;
11921;SDS011;6021;51.182;3.160;2023-07-29T04:11:10;4.83;;;3.83;;
11921;SDS011;6021;51.182;3.160;2023-07-29T04:13:39;3.97;;;3.57;;
11921;SDS011;6021;51.182;3.160;2023-07-29T04:16:07;3.70;;;3.07;;
11921;SDS011;6021;51.182;3.160;2023-07-29T04:18:36;5.03;;;3.70;;
11921;SDS011;6021;51.182;3.160;2023-07-29T04:21:04;4.00;;;3.27;;
11921;SDS011;6021;51.182;3.160;2023-07-29T04:23:32;5.00;;;3.70;;
11921;SDS011;6021;51.182;3.160;2023-07-29T04:26:01;4.17;;;3.70;;
11921;SDS011;6021;51.182;3.160;2023-07-29T04:28:30;5.43;;;4.03;;
11921;SDS011;6021;51.182;3.160;2023-07-29T04:30:58;5.53;;;3.90;;
11921;SDS011;6021;51.182;3.160;2023-07-29T04:33:29;4.57;;;4.10;;
11921;SDS011;6021;51.182;3.160;2023-07-29T04:35:57;4.30;;;3.83;;
11921;SDS011;6021;51.182;3.160;2023-07-29T04:38:30;7.53;;;4.13;;
11921;SDS011;6021;51.182;3.160;2023-07-29T04:40:57;5.80;;;4.30;;
11921;SDS011;6021;51.182;3.160;2023-07-29T04:43:30;4.70;;;4.20;;
11921;SDS011;6021;51.182;3.160;2023-07-29T04:46:00;5.37;;;4.23;;
11921;SDS011;6021;51.182;3.160;2023-07-29T04:48:28;4.50;;;4.10;;
11921;SDS011;6021;51.182;3.160;2023-07-29T04:50:56;4.67;;;4.00;;
11921;SDS011;6021;51.182;3.160;2023-07-29T04:53:25;5.17;;;4.07;;
11921;SDS011;6021;51.182;3.160;2023-07-29T04:55:53;4.50;;;3.60;;
11921;SDS011;6021;51.182;3.160;2023-07-29T04:58:21;4.23;;;3.70;;
11921;SDS011;6021;51.182;3.160;2023-07-29T05:00:50;4.37;;;3.97;;
11921;SDS011;6021;51.182;3.160;2023-07-29T05:03:18;4.73;;;4.27;;
11921;SDS011;6021;51.182;3.160;2023-07-29T05:05:47;4.77;;;4.00;;
11921;SDS011;6021;51.182;3.160;2023-07-29T05:08:15;5.17;;;4.07;;
11921;SDS011;6021;51.182;3.160;2023-07-29T05:10:43;5.00;;;3.97;;
11921;SDS011;6021;51.182;3.160;2023-07-29T05:13:13;3.50;;;3.20;;
11921;SDS011;6021;51.182;3.160;2023-07-29T05:15:42;4.07;;;3.50;;
11921;SDS011;6021;51.182;3.160;2023-07-29T05:18:11;5.87;;;4.07;;
11921;SDS011;6021;51.182;3.160;2023-07-29T05:20:39;4.77;;;3.63;;
11921;SDS011;6021;51.182;3.160;2023-07-29T05:23:08;3.70;;;3.30;;
11921;SDS011;6021;51.182;3.160;2023-07-29T05:25:36;4.33;;;3.40;;
11921;SDS011;6021;51.182;3.160;2023-07-29T05:28:05;4.73;;;3.47;;
11921;SDS011;6021;51.182;3.160;2023-07-29T05:30:33;6.97;;;3.83;;
11921;SDS011;6021;51.182;3.160;2023-07-29T05:33:04;4.97;;;3.50;;
11921;SDS011;6021;51.182;3.160;2023-07-29T05:35:34;4.13;;;3.47;;
11921;SDS011;6021;51.182;3.160;2023-07-29T05:38:02;4.97;;;3.60;;
11921;SDS011;6021;51.182;3.160;2023-07-29T05:40:32;4.33;;;3.43;;
11921;SDS011;6021;51.182;3.160;2023-07-29T05:43:01;4.23;;;3.40;;
11921;SDS011;6021;51.182;3.160;2023-07-29T05:45:29;4.10;;;3.70;;
11921;SDS011;6021;51.182;3.160;2023-07-29T05:47:58;4.10;;;3.70;;
11921;SDS011;6021;51.182;3.160;2023-07-29T05:50:26;4.57;;;4.13;;
11921;SDS011;6021;51.182;3.160;2023-07-29T05:52:55;6.47;;;3.67;;
11921;SDS011;6021;51.182;3.160;2023-07-29T05:55:23;4.23;;;3.83;;
11921;SDS011;6021;51.182;3.160;2023-07-29T05:57:51;3.93;;;3.60;;
11921;SDS011;6021;51.182;3.160;2023-07-29T06:00:21;4.17;;;3.77;;
11921;SDS011;6021;51.182;3.160;2023-07-29T06:02:49;4.10;;;3.63;;
11921;SDS011;6021;51.182;3.160;2023-07-29T06:05:18;3.93;;;3.53;;
11921;SDS011;6021;51.182;3.160;2023-07-29T06:07:46;4.83;;;4.03;;
11921;SDS011;6021;51.182;3.160;2023-07-29T06:10:15;4.17;;;3.77;;
11921;SDS011;6021;51.182;3.160;2023-07-29T06:12:47;4.13;;;3.63;;
11921;SDS011;6021;51.182;3.160;2023-07-29T06:15:15;3.87;;;3.20;;
11921;SDS011;6021;51.182;3.160;2023-07-29T06:17:44;4.40;;;3.40;;
11921;SDS011;6021;51.182;3.160;2023-07-29T06:20:12;4.87;;;3.27;;
11921;SDS011;6021;51.182;3.160;2023-07-29T06:22:40;3.20;;;2.90;;
11921;SDS011;6021;51.182;3.160;2023-07-29T06:25:09;3.93;;;3.10;;
11921;SDS011;6021;51.182;3.160;2023-07-29T06:27:38;3.70;;;3.10;;
11921;SDS011;6021;51.182;3.160;2023-07-29T06:30:06;3.43;;;3.10;;
11921;SDS011;6021;51.182;3.160;2023-07-29T06:32:35;4.37;;;3.27;;
11921;SDS011;6021;51.182;3.160;2023-07-29T06:35:03;4.20;;;3.00;;
11921;SDS011;6021;51.182;3.160;2023-07-29T06:37:32;3.23;;;2.77;;
11921;SDS011;6021;51.182;3.160;2023-07-29T06:40:00;3.13;;;2.70;;
11921;SDS011;6021;51.182;3.160;2023-07-29T06:42:29;3.90;;;2.90;;
11921;SDS011;6021;51.182;3.160;2023-07-29T06:44:58;3.90;;;2.70;;
11921;SDS011;6021;51.182;3.160;2023-07-29T06:47:26;4.23;;;2.70;;
11921;SDS011;6021;51.182;3.160;2023-07-29T06:49:54;3.20;;;2.60;;
11921;SDS011;6021;51.182;3.160;2023-07-29T06:52:23;3.43;;;2.60;;
11921;SDS011;6021;51.182;3.160;2023-07-29T06:54:51;4.23;;;2.57;;
11921;SDS011;6021;51.182;3.160;2023-07-29T06:57:19;3.97;;;2.53;;
11921;SDS011;6021;51.182;3.160;2023-07-29T06:59:48;3.17;;;2.47;;
11921;SDS011;6021;51.182;3.160;2023-07-29T07:02:16;2.50;;;2.30;;
11921;SDS011;6021;51.182;3.160;2023-07-29T07:04:45;2.63;;;2.43;;
11921;SDS011;6021;51.182;3.160;2023-07-29T07:07:15;3.07;;;2.10;;
11921;SDS011;6021;51.182;3.160;2023-07-29T07:09:43;2.50;;;2.30;;
11921;SDS011;6021;51.182;3.160;2023-07-29T07:12:12;2.53;;;2.30;;
11921;SDS011;6021;51.182;3.160;2023-07-29T07:14:40;2.80;;;2.50;;
11921;SDS011;6021;51.182;3.160;2023-07-29T07:17:08;3.93;;;2.30;;
11921;SDS011;6021;51.182;3.160;2023-07-29T07:19:37;3.67;;;2.50;;
11921;SDS011;6021;51.182;3.160;2023-07-29T07:22:05;2.60;;;2.30;;
11921;SDS011;6021;51.182;3.160;2023-07-29T07:24:34;2.77;;;2.40;;
11921;SDS011;6021;51.182;3.160;2023-07-29T07:27:02;3.20;;;2.33;;
11921;SDS011;6021;51.182;3.160;2023-07-29T07:29:31;2.50;;;2.23;;
11921;SDS011;6021;51.182;3.160;2023-07-29T07:31:59;2.33;;;2.13;;
11921;SDS011;6021;51.182;3.160;2023-07-29T07:34:27;3.63;;;2.47;;
11921;SDS011;6021;51.182;3.160;2023-07-29T07:36:56;3.13;;;2.60;;
11921;SDS011;6021;51.182;3.160;2023-07-29T07:39:24;2.73;;;2.17;;
11921;SDS011;6021;51.182;3.160;2023-07-29T07:41:52;2.50;;;2.30;;
11921;SDS011;6021;51.182;3.160;2023-07-29T07:44:21;4.20;;;2.67;;
11921;SDS011;6021;51.182;3.160;2023-07-29T07:46:49;3.13;;;2.33;;
11921;SDS011;6021;51.182;3.160;2023-07-29T07:49:18;4.87;;;2.43;;
11921;SDS011;6021;51.182;3.160;2023-07-29T07:51:46;2.77;;;2.50;;
11921;SDS011;6021;51.182;3.160;2023-07-29T07:54:14;2.53;;;2.33;;
11921;SDS011;6021;51.182;3.160;2023-07-29T07:56:43;3.67;;;2.30;;
11921;SDS011;6021;51.182;3.160;2023-07-29T07:59:11;3.33;;;2.63;;
11921;SDS011;6021;51.182;3.160;2023-07-29T08:01:40;5.80;;;2.57;;
11921;SDS011;6021;51.182;3.160;2023-07-29T08:04:08;3.80;;;2.57;;
11921;SDS011;6021;51.182;3.160;2023-07-29T08:06:37;3.60;;;2.83;;
11921;SDS011;6021;51.182;3.160;2023-07-29T08:09:05;5.23;;;2.73;;
11921;SDS011;6021;51.182;3.160;2023-07-29T08:11:33;4.03;;;2.80;;
11921;SDS011;6021;51.182;3.160;2023-07-29T08:14:02;2.83;;;2.37;;
11921;SDS011;6021;51.182;3.160;2023-07-29T08:16:30;4.67;;;2.47;;
11921;SDS011;6021;51.182;3.160;2023-07-29T08:18:58;2.70;;;2.47;;
11921;SDS011;6021;51.182;3.160;2023-07-29T08:21:27;3.63;;;2.63;;
11921;SDS011;6021;51.182;3.160;2023-07-29T08:23:55;4.10;;;3.10;;
11921;SDS011;6021;51.182;3.160;2023-07-29T08:26:24;2.90;;;2.70;;
11921;SDS011;6021;51.182;3.160;2023-07-29T08:28:52;3.30;;;2.60;;
11921;SDS011;6021;51.182;3.160;2023-07-29T08:31:21;3.33;;;2.60;;
11921;SDS011;6021;51.182;3.160;2023-07-29T08:33:49;4.97;;;2.80;;
11921;SDS011;6021;51.182;3.160;2023-07-29T08:36:17;3.67;;;2.90;;
11921;SDS011;6021;51.182;3.160;2023-07-29T08:38:46;3.47;;;3.17;;
11921;SDS011;6021;51.182;3.160;2023-07-29T08:41:29;3.70;;;3.27;;
11921;SDS011;6021;51.182;3.160;2023-07-29T08:44:10;3.47;;;3.23;;
11921;SDS011;6021;51.182;3.160;2023-07-29T08:46:40;3.47;;;3.17;;
11921;SDS011;6021;51.182;3.160;2023-07-29T08:49:11;5.07;;;3.40;;
11921;SDS011;6021;51.182;3.160;2023-07-29T08:51:41;4.87;;;3.33;;
11921;SDS011;6021;51.182;3.160;2023-07-29T08:54:12;3.47;;;3.17;;
11921;SDS011;6021;51.182;3.160;2023-07-29T08:56:41;4.13;;;3.70;;
11921;SDS011;6021;51.182;3.160;2023-07-29T08:59:11;4.30;;;3.90;;
11921;SDS011;6021;51.182;3.160;2023-07-29T09:01:39;5.00;;;4.47;;
11921;SDS011;6021;51.182;3.160;2023-07-29T09:04:09;8.37;;;4.23;;
11921;SDS011;6021;51.182;3.160;2023-07-29T09:06:37;5.80;;;3.90;;
11921;SDS011;6021;51.182;3.160;2023-07-29T09:09:07;7.80;;;5.00;;
11921;SDS011;6021;51.182;3.160;2023-07-29T09:11:36;7.23;;;5.30;;
11921;SDS011;6021;51.182;3.160;2023-07-29T09:14:04;5.33;;;4.50;;
11921;SDS011;6021;51.182;3.160;2023-07-29T09:16:33;5.40;;;4.90;;
11921;SDS011;6021;51.182;3.160;2023-07-29T09:19:01;6.60;;;5.37;;
11921;SDS011;6021;51.182;3.160;2023-07-29T09:21:31;6.40;;;5.80;;
11921;SDS011;6021;51.182;3.160;2023-07-29T09:24:03;6.13;;;5.53;;
11921;SDS011;6021;51.182;3.160;2023-07-29T09:26:34;6.97;;;6.27;;
11921;SDS011;6021;51.182;3.160;2023-07-29T09:29:03;7.07;;;6.43;;
11921;SDS011;6021;51.182;3.160;2023-07-29T09:31:31;6.53;;;5.93;;
11921;SDS011;6021;51.182;3.160;2023-07-29T09:34:00;6.70;;;6.03;;
11921;SDS011;6021;51.182;3.160;2023-07-29T09:36:31;8.47;;;6.60;;
11921;SDS011;6021;51.182;3.160;2023-07-29T09:39:00;7.93;;;6.23;;
11921;SDS011;6021;51.182;3.160;2023-07-29T09:41:29;6.53;;;5.93;;
11921;SDS011;6021;51.182;3.160;2023-07-29T09:44:02;7.37;;;6.27;;
11921;SDS011;6021;51.182;3.160;2023-07-29T09:46:32;6.33;;;5.60;;
11921;SDS011;6021;51.182;3.160;2023-07-29T09:49:03;5.03;;;4.47;;
11921;SDS011;6021;51.182;3.160;2023-07-29T09:51:36;4.10;;;3.70;;
11921;SDS011;6021;51.182;3.160;2023-07-29T09:54:06;4.97;;;3.77;;
11921;SDS011;6021;51.182;3.160;2023-07-29T09:56:39;3.60;;;3.30;;
11921;SDS011;6021;51.182;3.160;2023-07-29T09:59:12;3.63;;;3.17;;
11921;SDS011;6021;51.182;3.160;2023-07-29T10:01:40;3.93;;;3.10;;
11921;SDS011;6021;51.182;3.160;2023-07-29T10:04:09;3.63;;;3.10;;
11921;SDS011;6021;51.182;3.160;2023-07-29T10:06:39;4.33;;;3.50;;
11921;SDS011;6021;51.182;3.160;2023-07-29T10:09:10;3.60;;;3.30;;
11921;SDS011;6021;51.182;3.160;2023-07-29T10:11:40;4.20;;;3.80;;
11921;SDS011;6021;51.182;3.160;2023-07-29T10:14:09;4.27;;;3.97;;
11921;SDS011;6021;51.182;3.160;2023-07-29T10:16:42;4.50;;;4.10;;
11921;SDS011;6021;51.182;3.160;2023-07-29T10:19:11;4.90;;;4.10;;
11921;SDS011;6021;51.182;3.160;2023-07-29T10:21:42;5.00;;;4.60;;
11921;SDS011;6021;51.182;3.160;2023-07-29T10:24:19;5.70;;;4.80;;
11921;SDS011;6021;51.182;3.160;2023-07-29T10:26:46;5.40;;;4.90;;
11921;SDS011;6021;51.182;3.160;2023-07-29T10:29:18;5.30;;;4.90;;
11921;SDS011;6021;51.182;3.160;2023-07-29T10:31:48;5.60;;;5.10;;
11921;SDS011;6021;51.182;3.160;2023-07-29T10:34:18;5.20;;;4.70;;
11921;SDS011;6021;51.182;3.160;2023-07-29T10:36:48;4.87;;;4.47;;
11921;SDS011;6021;51.182;3.160;2023-07-29T10:39:17;5.53;;;5.03;;
11921;SDS011;6021;51.182;3.160;2023-07-29T10:41:55;5.20;;;4.70;;
11921;SDS011;6021;51.182;3.160;2023-07-29T10:47:15;4.90;;;4.50;;
11921;SDS011;6021;51.182;3.160;2023-07-29T10:49:46;5.57;;;4.30;;
11921;SDS011;6021;51.182;3.160;2023-07-29T10:52:16;5.00;;;4.53;;
11921;SDS011;6021;51.182;3.160;2023-07-29T10:54:47;5.10;;;4.70;;
11921;SDS011;6021;51.182;3.160;2023-07-29T10:57:16;5.07;;;4.50;;
11921;SDS011;6021;51.182;3.160;2023-07-29T11:00:07;4.57;;;3.93;;
11921;SDS011;6021;51.182;3.160;2023-07-29T11:02:36;6.73;;;4.13;;
11921;SDS011;6021;51.182;3.160;2023-07-29T11:05:16;5.03;;;3.80;;
11921;SDS011;6021;51.182;3.160;2023-07-29T11:07:47;5.03;;;3.50;;
11921;SDS011;6021;51.182;3.160;2023-07-29T11:10:15;4.90;;;3.00;;
11921;SDS011;6021;51.182;3.160;2023-07-29T11:15:15;3.67;;;3.20;;
11921;SDS011;6021;51.182;3.160;2023-07-29T11:17:49;4.13;;;3.10;;
11921;SDS011;6021;51.182;3.160;2023-07-29T11:20:23;4.20;;;2.80;;
11921;SDS011;6021;51.182;3.160;2023-07-29T11:22:53;4.13;;;3.20;;
11921;SDS011;6021;51.182;3.160;2023-07-29T11:25:23;3.43;;;2.80;;
11921;SDS011;6021;51.182;3.160;2023-07-29T11:27:53;3.70;;;2.80;;
11921;SDS011;6021;51.182;3.160;2023-07-29T11:30:23;2.67;;;2.47;;
11921;SDS011;6021;51.182;3.160;2023-07-29T11:32:57;3.60;;;2.70;;
11921;SDS011;6021;51.182;3.160;2023-07-29T11:35:26;4.27;;;2.80;;
11921;SDS011;6021;51.182;3.160;2023-07-29T11:37:55;2.73;;;2.43;;
11921;SDS011;6021;51.182;3.160;2023-07-29T11:40:24;2.50;;;2.17;;
11921;SDS011;6021;51.182;3.160;2023-07-29T11:42:52;4.67;;;2.40;;
11921;SDS011;6021;51.182;3.160;2023-07-29T11:45:21;2.83;;;2.50;;
11921;SDS011;6021;51.182;3.160;2023-07-29T11:47:50;2.30;;;2.10;;
11921;SDS011;6021;51.182;3.160;2023-07-29T11:50:18;2.63;;;2.27;;
11921;SDS011;6021;51.182;3.160;2023-07-29T11:52:47;2.23;;;2.10;;
11921;SDS011;6021;51.182;3.160;2023-07-29T11:55:16;2.57;;;2.27;;
11921;SDS011;6021;51.182;3.160;2023-07-29T11:57:45;2.30;;;2.07;;
11921;SDS011;6021;51.182;3.160;2023-07-29T12:00:17;2.70;;;2.23;;
11921;SDS011;6021;51.182;3.160;2023-07-29T12:02:45;2.90;;;2.20;;
11921;SDS011;6021;51.182;3.160;2023-07-29T12:05:15;2.77;;;2.20;;
11921;SDS011;6021;51.182;3.160;2023-07-29T12:07:45;3.03;;;2.23;;
11921;SDS011;6021;51.182;3.160;2023-07-29T12:10:14;3.63;;;2.20;;
11921;SDS011;6021;51.182;3.160;2023-07-29T12:12:46;3.97;;;2.40;;
11921;SDS011;6021;51.182;3.160;2023-07-29T12:15:27;2.40;;;2.20;;
11921;SDS011;6021;51.182;3.160;2023-07-29T12:17:57;3.60;;;2.40;;
11921;SDS011;6021;51.182;3.160;2023-07-29T12:20:26;3.10;;;2.33;;
11921;SDS011;6021;51.182;3.160;2023-07-29T12:22:56;2.90;;;2.30;;
11921;SDS011;6021;51.182;3.160;2023-07-29T12:25:28;2.37;;;2.17;;
11921;SDS011;6021;51.182;3.160;2023-07-29T12:27:56;2.97;;;2.10;;
11921;SDS011;6021;51.182;3.160;2023-07-29T12:30:26;3.00;;;2.40;;
11921;SDS011;6021;51.182;3.160;2023-07-29T12:32:54;4.47;;;2.30;;
11921;SDS011;6021;51.182;3.160;2023-07-29T12:35:23;3.30;;;2.73;;
11921;SDS011;6021;51.182;3.160;2023-07-29T12:37:58;3.13;;;2.43;;
11921;SDS011;6021;51.182;3.160;2023-07-29T12:40:27;2.90;;;2.67;;
11921;SDS011;6021;51.182;3.160;2023-07-29T12:42:58;3.30;;;2.63;;
11921;SDS011;6021;51.182;3.160;2023-07-29T12:45:27;3.20;;;2.63;;
11921;SDS011;6021;51.182;3.160;2023-07-29T12:47:57;3.20;;;2.90;;
11921;SDS011;6021;51.182;3.160;2023-07-29T12:50:25;4.57;;;2.83;;
11921;SDS011;6021;51.182;3.160;2023-07-29T12:52:53;3.60;;;3.20;;
11921;SDS011;6021;51.182;3.160;2023-07-29T12:55:22;3.70;;;3.07;;
11921;SDS011;6021;51.182;3.160;2023-07-29T12:57:50;3.43;;;3.00;;
11921;SDS011;6021;51.182;3.160;2023-07-29T13:00:19;3.20;;;3.00;;
11921;SDS011;6021;51.182;3.160;2023-07-29T13:02:47;3.70;;;2.97;;
11921;SDS011;6021;51.182;3.160;2023-07-29T13:05:15;3.80;;;3.20;;
11921;SDS011;6021;51.182;3.160;2023-07-29T13:07:44;5.00;;;3.40;;
11921;SDS011;6021;51.182;3.160;2023-07-29T13:10:13;4.07;;;3.43;;
11921;SDS011;6021;51.182;3.160;2023-07-29T13:12:41;3.93;;;3.07;;
11921;SDS011;6021;51.182;3.160;2023-07-29T13:15:10;3.23;;;2.93;;
11921;SDS011;6021;51.182;3.160;2023-07-29T13:17:38;3.77;;;2.70;;
11921;SDS011;6021;51.182;3.160;2023-07-29T13:20:07;2.77;;;2.57;;
11921;SDS011;6021;51.182;3.160;2023-07-29T13:22:36;2.20;;;2.00;;
11921;SDS011;6021;51.182;3.160;2023-07-29T13:25:04;2.23;;;2.00;;
11921;SDS011;6021;51.182;3.160;2023-07-29T13:27:33;1.93;;;1.80;;
11921;SDS011;6021;51.182;3.160;2023-07-29T13:30:01;1.87;;;1.67;;
11921;SDS011;6021;51.182;3.160;2023-07-29T13:32:30;1.47;;;1.37;;
11921;SDS011;6021;51.182;3.160;2023-07-29T13:34:58;1.83;;;1.40;;
11921;SDS011;6021;51.182;3.160;2023-07-29T13:37:27;1.93;;;1.40;;
11921;SDS011;6021;51.182;3.160;2023-07-29T13:39:55;1.40;;;1.30;;
11921;SDS011;6021;51.182;3.160;2023-07-29T13:42:23;1.50;;;1.40;;
11921;SDS011;6021;51.182;3.160;2023-07-29T13:47:39;1.33;;;1.23;;
11921;SDS011;6021;51.182;3.160;2023-07-29T13:50:09;1.80;;;1.20;;
11921;SDS011;6021;51.182;3.160;2023-07-29T13:52:38;1.70;;;1.40;;
11921;SDS011;6021;51.182;3.160;2023-07-29T13:55:07;1.40;;;1.30;;
11921;SDS011;6021;51.182;3.160;2023-07-29T13:57:37;1.40;;;1.30;;
11921;SDS011;6021;51.182;3.160;2023-07-29T14:00:06;2.37;;;1.40;;
11921;SDS011;6021;51.182;3.160;2023-07-29T14:02:35;1.40;;;1.30;;
11921;SDS011;6021;51.182;3.160;2023-07-29T14:05:03;1.50;;;1.40;;
11921;SDS011;6021;51.182;3.160;2023-07-29T14:07:33;1.70;;;1.60;;
11921;SDS011;6021;51.182;3.160;2023-07-29T14:10:02;1.43;;;1.33;;
11921;SDS011;6021;51.182;3.160;2023-07-29T14:12:30;1.20;;;1.20;;
11921;SDS011;6021;51.182;3.160;2023-07-29T14:14:59;1.60;;;1.40;;
11921;SDS011;6021;51.182;3.160;2023-07-29T14:17:27;2.43;;;1.57;;
11921;SDS011;6021;51.182;3.160;2023-07-29T14:19:55;2.00;;;1.60;;
11921;SDS011;6021;51.182;3.160;2023-07-29T14:22:24;2.63;;;1.60;;
11921;SDS011;6021;51.182;3.160;2023-07-29T14:24:52;1.83;;;1.70;;
11921;SDS011;6021;51.182;3.160;2023-07-29T14:27:21;2.73;;;1.90;;
11921;SDS011;6021;51.182;3.160;2023-07-29T14:29:49;3.13;;;1.93;;
11921;SDS011;6021;51.182;3.160;2023-07-29T14:32:19;2.30;;;1.97;;
11921;SDS011;6021;51.182;3.160;2023-07-29T14:34:47;4.50;;;2.40;;
11921;SDS011;6021;51.182;3.160;2023-07-29T14:37:15;3.83;;;2.00;;
11921;SDS011;6021;51.182;3.160;2023-07-29T14:39:44;3.93;;;2.50;;
11921;SDS011;6021;51.182;3.160;2023-07-29T14:42:12;4.83;;;2.40;;
11921;SDS011;6021;51.182;3.160;2023-07-29T14:44:41;3.23;;;2.20;;
11921;SDS011;6021;51.182;3.160;2023-07-29T14:47:10;3.57;;;2.13;;
11921;SDS011;6021;51.182;3.160;2023-07-29T14:49:39;4.17;;;2.10;;
11921;SDS011;6021;51.182;3.160;2023-07-29T14:52:07;3.33;;;2.10;;
11921;SDS011;6021;51.182;3.160;2023-07-29T14:54:35;3.73;;;2.20;;
11921;SDS011;6021;51.182;3.160;2023-07-29T14:57:05;4.23;;;2.43;;
11921;SDS011;6021;51.182;3.160;2023-07-29T14:59:34;3.97;;;2.17;;
11921;SDS011;6021;51.182;3.160;2023-07-29T15:02:03;5.17;;;2.50;;
11921;SDS011;6021;51.182;3.160;2023-07-29T15:04:32;6.43;;;2.30;;
11921;SDS011;6021;51.182;3.160;2023-07-29T15:07:00;6.07;;;2.60;;
11921;SDS011;6021;51.182;3.160;2023-07-29T15:09:29;4.37;;;2.00;;
11921;SDS011;6021;51.182;3.160;2023-07-29T15:11:57;4.87;;;2.40;;
11921;SDS011;6021;51.182;3.160;2023-07-29T15:14:26;3.80;;;2.30;;
11921;SDS011;6021;51.182;3.160;2023-07-29T15:16:54;10.67;;;2.50;;
11921;SDS011;6021;51.182;3.160;2023-07-29T15:19:23;6.93;;;2.70;;
11921;SDS011;6021;51.182;3.160;2023-07-29T15:21:51;5.53;;;2.33;;
11921;SDS011;6021;51.182;3.160;2023-07-29T15:24:20;5.07;;;2.53;;
11921;SDS011;6021;51.182;3.160;2023-07-29T15:26:48;6.43;;;2.50;;
11921;SDS011;6021;51.182;3.160;2023-07-29T15:29:16;4.63;;;2.37;;
11921;SDS011;6021;51.182;3.160;2023-07-29T15:31:45;3.53;;;2.37;;